UWGG 272030Z 09002MPS 9999 -RA OVC027 09/09 Q1013 R18L/290050 NOSIG
QNH:(hPa/inHg/mmHg)1013 / 29.91 / 760
QFE:(hPa/inHg/mmHg)1004 / 29.63 / 753
Temperature9
Dew Point9
Visibility> 10000
WeatherLight Rain
Cloud CoverOVC (2700);
Transition Altitude5000 ft.
Transition LevelFL60
SQUAWK2120